Montelimar, France

3:19 PM CET on January 25, 2015 (GMT +0100)
Centre-ville | Change Station
CLOSE
Current Station
Personal Weather Station
Location: Montelimar, Rhône-Alpes
Elevation: 253 ft
Nearby Weather Stations

Elev 253 ft 44.56 °N, 4.74 °E | Updated 2 minutes ago

Clear
Clear
44.1 °F
Feels Like 37 °F
N
17.0
Wind Variable Wind from NNE
Gusts 36.0 mph

Today
High -- | Low -- °F
--% Chance of Precip.
Yesterday
High -- | Low -- °F
Precip. -- in
8:07 AM 5:39 PM
Waxing Crescent, 32% visible
Pressure 30.15 in
Visibility 6.2 miles
Clouds
Windchill 37 °F
Dew Point 30 °F
Humidity 57%
Rainfall 0.00 in
Snow Depth Not available.
UV Not available.
Pollen Not available.
Air Quality Not available.
Flu Activity Not available.
METAR LFMO 251400Z AUTO 36029G39KT 9999 NSC 07/M02 Q1021

More Conditions Fewer Conditions

Pressure 30.15 in
Visibility 6.2 miles
Clouds
Windchill 37 °F
Dew Point 30 °F
Humidity 57%
Rainfall 0.00 in
Snow Depth Not available.
UV Not available.
Pollen Not available.
Air Quality Not available.
Flu Activity Not available.
METAR LFMO 251400Z AUTO 36029G39KT 9999 NSC 07/M02 Q1021

More Conditions Fewer Conditions

10-Day Weather Forecast

Almanac

Astronomy

Jan. 25, 2015 Rise Set
Actual Time
Civil Twilight
Nautical Twilight
Astronomical Twilight
Moon
Length of Visible Light
Length of Day
Tomorrow will be .
, % of the Moon is Illuminated

Today's Extremes

Country Highs Country Lows

Community

WunderPhotos

Upload Photos

1,789,893 photos uploaded!

WunderBlogs® & News

Nearby

Air Quality

  Air Quality AQ Index Pollutant
Not available.

Snow Depth

Station Depth Elevation

Earthquake Activity

City Distance Mag. Time & Date
Minimum magnitude displayed is 2.5.

Coastal Water Temperatures

Place Temperature

Nearby Weather Stations